createdAt,value
2018-06-11T00:03:10.869Z,95.10
2018-06-11T00:05:41.214Z,95.30
2018-06-11T00:08:11.523Z,95.40
2018-06-11T00:10:41.809Z,95.40
2018-06-11T00:13:12.239Z,95.40
2018-06-11T00:15:42.562Z,95.30
2018-06-11T00:18:12.845Z,95.20
2018-06-11T00:20:43.160Z,95.20
2018-06-11T00:23:13.463Z,95.20
2018-06-11T00:25:43.724Z,95.20
2018-06-11T00:28:14.019Z,95.20
2018-06-11T00:30:44.283Z,95.30
2018-06-11T00:35:44.513Z,95.30
2018-06-11T00:38:14.822Z,95.50
2018-06-11T00:40:45.164Z,95.60
2018-06-11T00:43:15.511Z,95.40
2018-06-11T00:48:15.646Z,95.50
2018-06-11T00:53:15.878Z,95.60
2018-06-11T00:58:27.159Z,95.60
2018-06-11T01:00:57.537Z,95.50
2018-06-11T01:03:27.828Z,95.60
2018-06-11T01:05:58.180Z,95.60
2018-06-11T01:08:28.460Z,95.80
2018-06-11T01:10:58.732Z,95.70
2018-06-11T01:13:29.283Z,95.90
2018-06-11T01:15:59.664Z,95.80
2018-06-11T01:18:30.004Z,95.90
2018-06-11T01:21:00.320Z,95.80
2018-06-11T01:23:30.621Z,96.00
2018-06-11T01:26:00.958Z,95.90
2018-06-11T01:28:31.328Z,95.90
2018-06-11T01:31:01.569Z,96.00
2018-06-11T01:33:32.802Z,96.00
2018-06-11T01:36:03.145Z,96.00
2018-06-11T01:38:33.427Z,95.90
2018-06-11T01:41:03.700Z,95.90
2018-06-11T01:43:34.010Z,95.90
2018-06-11T01:46:04.404Z,96.20
2018-06-11T01:48:34.689Z,96.10
2018-06-11T01:51:05.006Z,96.30
2018-06-11T01:53:35.313Z,96.30
2018-06-11T01:56:05.605Z,96.20
2018-06-11T01:58:35.880Z,96.30
2018-06-11T02:01:06.231Z,96.10
2018-06-11T02:03:36.473Z,96.00
2018-06-11T02:06:06.804Z,96.20
2018-06-11T02:08:37.093Z,96.20
2018-06-11T02:11:07.534Z,96.20
2018-06-11T02:13:38.012Z,96.10
2018-06-11T02:16:08.381Z,96.10
2018-06-11T02:18:38.685Z,96.30
2018-06-11T02:21:08.988Z,96.40
2018-06-11T02:23:39.274Z,96.50
2018-06-11T02:26:09.532Z,96.50
2018-06-11T02:28:40.091Z,96.40
2018-06-11T02:31:10.447Z,96.50
2018-06-11T02:33:40.738Z,96.30
2018-06-11T02:36:10.995Z,96.40
2018-06-11T02:38:41.271Z,96.40
2018-06-11T02:41:11.541Z,96.30
2018-06-11T02:43:41.853Z,96.50
2018-06-11T02:46:12.261Z,96.50
2018-06-11T02:48:42.568Z,96.40
2018-06-11T02:53:42.880Z,96.20
2018-06-11T02:56:13.268Z,96.30
2018-06-11T02:58:43.581Z,96.40
2018-06-11T03:01:13.941Z,96.50
2018-06-11T03:03:44.331Z,96.50
2018-06-11T03:06:14.636Z,96.50
2018-06-11T03:08:44.944Z,96.50
2018-06-11T03:11:15.415Z,96.60
2018-06-11T03:13:46.217Z,96.60
2018-06-11T03:18:46.613Z,96.70
2018-06-11T03:21:17.019Z,96.70
2018-06-11T03:23:47.360Z,96.60
2018-06-11T03:26:17.620Z,96.70
2018-06-11T03:31:17.885Z,96.70
2018-06-11T03:33:48.207Z,96.40
2018-06-11T03:36:18.537Z,96.20
2018-06-11T03:38:48.856Z,96.30
2018-06-11T03:41:19.179Z,96.30
2018-06-11T03:43:49.505Z,96.30
2018-06-11T03:46:19.809Z,96.20
2018-06-11T03:51:20.048Z,96.40
2018-06-11T03:53:50.333Z,96.60
2018-06-11T03:56:20.608Z,96.60
2018-06-11T03:58:50.917Z,96.50
2018-06-11T04:03:51.266Z,96.70
2018-06-11T04:08:51.367Z,96.50
2018-06-11T04:11:21.638Z,96.60
2018-06-11T04:13:52.295Z,96.60
2018-06-11T04:16:22.727Z,96.70
2018-06-11T04:18:53.021Z,96.70
2018-06-11T04:21:23.342Z,96.90
2018-06-11T04:23:53.593Z,96.80
2018-06-11T04:26:23.901Z,96.70
2018-06-11T04:28:54.337Z,96.70
2018-06-11T04:31:24.624Z,96.50
2018-06-11T04:36:24.815Z,96.40
2018-06-11T04:38:55.133Z,96.60
2018-06-11T04:41:25.452Z,96.40
2018-06-11T04:43:55.765Z,96.30
2018-06-11T04:46:26.165Z,96.20
2018-06-11T04:48:56.543Z,96.20
2018-06-11T04:51:26.801Z,96.30
2018-06-11T04:53:57.064Z,96.20
2018-06-11T04:56:27.373Z,95.90
2018-06-11T04:58:57.701Z,96.00
2018-06-11T05:01:28.070Z,95.70
2018-06-11T05:03:58.364Z,95.80
2018-06-11T05:06:28.693Z,95.70
2018-06-11T05:08:58.954Z,95.60
2018-06-11T05:11:29.299Z,95.70
2018-06-11T05:16:29.823Z,95.00
2018-06-11T05:19:00.147Z,94.60
2018-06-11T05:21:30.572Z,94.60
2018-06-11T05:24:00.868Z,94.50
2018-06-11T05:26:31.259Z,94.50
2018-06-11T05:29:01.627Z,94.60
2018-06-11T05:31:32.048Z,94.10
2018-06-11T05:34:02.342Z,94.00
2018-06-11T05:36:32.625Z,93.90
2018-06-11T05:39:02.947Z,93.80
2018-06-11T05:41:33.283Z,93.70
2018-06-11T05:46:33.637Z,94.20
2018-06-11T05:51:33.843Z,94.50
2018-06-11T05:54:04.272Z,94.10
2018-06-11T05:56:34.564Z,94.00
2018-06-11T05:59:04.917Z,94.20
2018-06-11T06:01:35.206Z,93.90
2018-06-11T06:04:05.528Z,93.50
2018-06-11T06:06:35.851Z,93.40
2018-06-11T06:09:08.238Z,93.00
2018-06-11T06:11:38.596Z,92.80
2018-06-11T06:14:09.003Z,93.00
2018-06-11T06:19:21.744Z,92.90
2018-06-11T06:21:52.174Z,93.10
2018-06-11T06:24:22.515Z,93.00
2018-06-11T06:29:22.765Z,93.00
2018-06-11T06:31:53.104Z,92.90
2018-06-11T06:34:23.449Z,93.10
2018-06-11T06:36:53.749Z,93.20
2018-06-11T06:39:24.097Z,92.90
2018-06-11T06:41:54.445Z,93.30
2018-06-11T06:44:24.802Z,92.90
2018-06-11T06:49:25.065Z,92.60
2018-06-11T06:51:55.382Z,92.90
2018-06-11T06:54:25.664Z,93.10
2018-06-11T06:56:55.991Z,92.40
2018-06-11T06:59:26.320Z,92.40
2018-06-11T07:01:56.652Z,92.00
2018-06-11T07:04:26.941Z,91.60
2018-06-11T07:06:57.241Z,90.80
2018-06-11T07:09:27.568Z,90.70
2018-06-11T07:11:57.872Z,90.80
2018-06-11T07:14:28.222Z,90.70
2018-06-11T07:16:58.502Z,90.30
2018-06-11T07:19:28.833Z,90.50
2018-06-11T07:21:59.118Z,90.70
2018-06-11T07:24:29.421Z,90.90
2018-06-11T07:27:00.825Z,90.80
2018-06-11T07:29:31.083Z,90.40
2018-06-11T07:32:01.371Z,89.70
2018-06-11T07:37:01.560Z,89.10
2018-06-11T07:39:31.900Z,89.20
2018-06-11T07:42:02.188Z,90.10
2018-06-11T07:44:32.489Z,89.30
2018-06-11T07:47:02.813Z,88.80
2018-06-11T07:52:03.124Z,88.30
2018-06-11T07:54:33.437Z,87.50
2018-06-11T07:57:03.792Z,87.70
2018-06-11T07:59:34.075Z,88.50
2018-06-11T08:02:04.413Z,87.80
2018-06-11T08:04:34.726Z,87.70
2018-06-11T08:07:05.076Z,88.10
2018-06-11T08:09:35.383Z,88.00
2018-06-11T08:12:05.738Z,88.60
2018-06-11T08:17:06.378Z,84.60
2018-06-11T08:22:06.674Z,83.70
2018-06-11T08:24:37.008Z,83.20
2018-06-11T08:27:07.352Z,84.70
2018-06-11T08:29:37.772Z,82.10
2018-06-11T08:32:08.212Z,81.10
2018-06-11T08:34:38.611Z,80.20
2018-06-11T08:37:09.056Z,81.20
2018-06-11T08:39:39.421Z,82.70
2018-06-11T08:42:09.835Z,81.90
2018-06-11T08:47:10.305Z,79.80
2018-06-11T08:49:40.716Z,81.80
2018-06-11T08:52:11.125Z,82.40
2018-06-11T08:57:11.640Z,82.00
2018-06-11T08:59:42.116Z,82.20
2018-06-11T09:04:42.528Z,81.40
2018-06-11T09:07:12.960Z,76.80
2018-06-11T09:09:43.367Z,76.30
2018-06-11T09:12:13.819Z,77.10
2018-06-11T09:14:44.212Z,76.20
2018-06-11T09:17:14.722Z,77.40
2018-06-11T09:19:45.096Z,74.90
2018-06-11T09:22:15.554Z,75.70
2018-06-11T09:24:45.969Z,77.30
2018-06-11T09:27:16.426Z,76.00
2018-06-11T09:29:46.757Z,75.50
2018-06-11T09:32:17.188Z,73.80
2018-06-11T09:34:47.572Z,73.70
2018-06-11T09:37:17.974Z,75.20
2018-06-11T09:39:48.271Z,74.60
2018-06-11T09:42:18.581Z,74.30
2018-06-11T09:44:48.878Z,70.80
2018-06-11T09:47:19.212Z,73.00
2018-06-11T09:49:49.498Z,73.00
2018-06-11T09:52:19.848Z,73.30
2018-06-11T09:54:50.204Z,69.30
2018-06-11T09:57:20.609Z,70.00
2018-06-11T09:59:50.885Z,70.70
2018-06-11T10:02:21.521Z,70.90
2018-06-11T10:04:51.880Z,70.40
2018-06-11T10:07:23.577Z,71.30
2018-06-11T10:09:53.884Z,71.00
2018-06-11T10:12:24.319Z,72.20
2018-06-11T10:14:54.522Z,70.40
2018-06-11T10:17:24.873Z,70.30
2018-06-11T10:19:55.170Z,71.50
2018-06-11T10:22:25.474Z,70.60
2018-06-11T10:24:55.881Z,73.40
2018-06-11T10:27:26.182Z,70.30
2018-06-11T10:29:56.452Z,68.40
2018-06-11T10:32:26.804Z,66.30
2018-06-11T10:34:57.099Z,67.90
2018-06-11T10:37:27.484Z,69.10
2018-06-11T10:39:57.801Z,70.20
2018-06-11T10:42:28.159Z,68.80
2018-06-11T10:44:58.408Z,66.90
2018-06-11T10:47:28.730Z,67.50
2018-06-11T10:49:59.055Z,69.90
2018-06-11T10:52:29.307Z,71.80
2018-06-11T10:54:59.636Z,72.10
2018-06-11T10:57:29.944Z,72.90
2018-06-11T11:00:00.286Z,73.50
2018-06-11T11:02:30.596Z,74.10
2018-06-11T11:05:00.930Z,73.50
2018-06-11T11:07:31.260Z,72.30
2018-06-11T11:10:01.574Z,66.80
2018-06-11T11:12:31.915Z,62.90
2018-06-11T11:15:02.244Z,57.20
2018-06-11T11:17:32.555Z,57.00
2018-06-11T11:20:02.899Z,56.90
2018-06-11T11:22:33.140Z,52.60
2018-06-11T11:25:03.456Z,51.90
2018-06-11T11:27:33.772Z,50.80
2018-06-11T11:30:04.178Z,51.70
2018-06-11T11:32:34.574Z,52.30
2018-06-11T11:35:04.908Z,53.20
2018-06-11T11:37:35.225Z,51.00
2018-06-11T11:40:05.605Z,51.60
2018-06-11T11:47:35.774Z,49.90
2018-06-11T11:50:06.124Z,53.20
2018-06-11T11:52:36.397Z,55.30
2018-06-11T11:57:36.664Z,56.40
2018-06-11T12:00:07.025Z,55.30
2018-06-11T12:02:37.279Z,54.90
2018-06-11T12:05:07.613Z,53.50
2018-06-11T12:10:07.805Z,49.20
2018-06-11T12:12:38.204Z,46.10
2018-06-11T12:15:08.641Z,40.30
2018-06-11T12:17:39.001Z,42.50
2018-06-11T12:20:09.404Z,39.60
2018-06-11T12:22:39.858Z,40.00
2018-06-11T12:25:10.215Z,37.80
2018-06-11T12:30:10.469Z,37.10
2018-06-11T12:32:40.873Z,38.90
2018-06-11T12:37:41.224Z,36.30
2018-06-11T12:40:11.617Z,35.50
2018-06-11T12:42:41.932Z,33.50
2018-06-11T12:45:12.268Z,34.00
2018-06-11T12:47:42.648Z,33.40
2018-06-11T12:50:13.024Z,35.00
2018-06-11T12:52:43.334Z,37.60
2018-06-11T12:55:13.702Z,37.40
2018-06-11T12:57:44.019Z,37.90
2018-06-11T13:00:15.917Z,40.90
2018-06-11T13:02:46.260Z,37.90
2018-06-11T13:05:16.753Z,36.10
2018-06-11T13:07:47.192Z,32.00
2018-06-11T13:10:17.688Z,30.50
2018-06-11T13:15:18.068Z,34.20
2018-06-11T13:17:48.421Z,36.10
2018-06-11T13:20:18.768Z,38.90
2018-06-11T13:25:19.028Z,35.90
2018-06-11T13:27:49.352Z,36.20
2018-06-11T13:30:19.692Z,34.30
2018-06-11T13:32:50.029Z,32.30
2018-06-11T13:35:20.383Z,31.60
2018-06-11T13:37:50.673Z,31.50
2018-06-11T13:40:21.007Z,29.00
2018-06-11T13:42:51.303Z,30.40
2018-06-11T13:45:21.606Z,30.60
2018-06-11T13:50:22.396Z,31.00
2018-06-11T13:52:52.668Z,30.90
2018-06-11T13:55:23.006Z,31.20
2018-06-11T14:00:23.302Z,31.10
2018-06-11T14:02:53.630Z,31.50
2018-06-11T14:05:23.926Z,29.60
2018-06-11T14:07:54.266Z,31.20
2018-06-11T14:10:24.583Z,29.90
2018-06-11T14:12:54.924Z,30.90
2018-06-11T14:15:25.251Z,29.90
2018-06-11T14:17:55.572Z,29.70
2018-06-11T14:20:25.937Z,29.00
2018-06-11T14:25:26.257Z,29.70
2018-06-11T14:27:56.566Z,28.60
2018-06-11T14:30:26.930Z,29.30
2018-06-11T14:32:57.309Z,29.70
2018-06-11T14:35:27.585Z,29.90
2018-06-11T14:37:57.993Z,30.00
2018-06-11T14:40:28.306Z,29.90
2018-06-11T14:42:58.598Z,31.50
2018-06-11T14:45:29.649Z,30.50
2018-06-11T14:47:59.999Z,32.30
2018-06-11T14:50:30.349Z,32.30
2018-06-11T14:53:00.816Z,32.60
2018-06-11T14:55:31.060Z,31.40
2018-06-11T14:58:01.668Z,31.00
2018-06-11T15:00:31.981Z,30.40
2018-06-11T15:03:02.327Z,30.00
2018-06-11T15:05:32.633Z,29.80
2018-06-11T15:08:02.932Z,30.00
2018-06-11T15:10:33.252Z,30.70
2018-06-11T15:15:34.481Z,31.10
2018-06-11T15:18:04.787Z,30.00
2018-06-11T15:20:35.107Z,29.90
2018-06-11T15:23:05.408Z,29.60
2018-06-11T15:25:35.720Z,29.60
2018-06-11T15:28:06.067Z,29.80
2018-06-11T15:30:36.364Z,29.80
2018-06-11T15:33:06.650Z,29.10
2018-06-11T15:35:37.532Z,28.60
2018-06-11T15:38:08.688Z,28.40
2018-06-11T15:40:39.038Z,27.60
2018-06-11T15:43:09.336Z,28.30
2018-06-11T15:45:39.650Z,28.50
2018-06-11T15:48:09.941Z,27.60
2018-06-11T15:53:10.185Z,28.80
2018-06-11T15:58:10.540Z,29.40
2018-06-11T16:00:40.926Z,28.10
2018-06-11T16:03:11.202Z,29.40
2018-06-11T16:05:41.533Z,30.00
2018-06-11T16:08:11.909Z,29.20
2018-06-11T16:10:42.244Z,28.70
2018-06-11T16:13:12.601Z,27.80
2018-06-11T16:15:42.949Z,26.90
2018-06-11T16:18:13.309Z,26.60
2018-06-11T16:20:43.939Z,24.90
2018-06-11T16:23:14.281Z,24.50
2018-06-11T16:25:44.655Z,25.30
2018-06-11T16:28:15.131Z,25.10
2018-06-11T16:30:45.475Z,25.10
2018-06-11T16:33:15.815Z,24.70
2018-06-11T16:35:46.142Z,23.80
2018-06-11T16:38:17.628Z,24.00
2018-06-11T16:40:48.048Z,23.80
2018-06-11T16:43:19.211Z,23.60
2018-06-11T16:45:49.532Z,24.10
2018-06-11T16:48:19.868Z,23.80
2018-06-11T16:53:20.156Z,24.80
2018-06-11T16:55:50.436Z,23.70
2018-06-11T16:58:20.760Z,24.20
2018-06-11T17:03:21.009Z,24.80
2018-06-11T17:05:51.300Z,25.60
2018-06-11T17:08:21.616Z,26.70
2018-06-11T17:10:51.949Z,27.50
2018-06-11T17:13:22.237Z,28.00
2018-06-11T17:15:52.602Z,29.70
2018-06-11T17:18:22.928Z,29.80
2018-06-11T17:20:53.269Z,31.30
2018-06-11T17:23:23.584Z,32.70
2018-06-11T17:25:53.956Z,34.60
2018-06-11T17:28:24.265Z,36.40
2018-06-11T17:30:54.627Z,38.60
2018-06-11T17:33:24.970Z,40.30
2018-06-11T17:35:55.321Z,41.70
2018-06-11T17:38:25.685Z,43.10
2018-06-11T17:40:56.344Z,44.60
2018-06-11T17:43:26.663Z,45.80
2018-06-11T17:45:57.009Z,47.10
2018-06-11T17:48:27.860Z,48.10
2018-06-11T17:53:28.170Z,50.80
2018-06-11T17:55:58.490Z,51.30
2018-06-11T17:58:28.863Z,52.10
2018-06-11T18:03:29.081Z,53.80
2018-06-11T18:08:29.369Z,55.90
2018-06-11T18:10:59.664Z,56.10
2018-06-11T18:13:29.955Z,56.80
2018-06-11T18:16:00.307Z,58.20
2018-06-11T18:18:30.597Z,58.80
2018-06-11T18:21:00.977Z,59.30
2018-06-11T18:23:31.318Z,60.10
2018-06-11T18:26:01.641Z,60.70
2018-06-11T18:28:32.040Z,61.30
2018-06-11T18:31:02.377Z,61.60
2018-06-11T18:33:32.722Z,62.50
2018-06-11T18:36:03.066Z,62.90
2018-06-11T18:38:33.406Z,63.40
2018-06-11T18:41:03.708Z,64.30
2018-06-11T18:43:34.422Z,64.90
2018-06-11T18:46:04.912Z,65.20
2018-06-11T18:48:35.782Z,65.60
2018-06-11T18:51:06.823Z,65.90
2018-06-11T18:53:38.925Z,65.80
2018-06-11T18:56:09.639Z,66.20
2018-06-11T18:58:40.933Z,66.50
2018-06-11T19:01:11.883Z,67.00
2018-06-11T19:03:43.507Z,68.00
2018-06-11T19:06:14.138Z,68.20
2018-06-11T19:08:44.695Z,68.80
2018-06-11T19:11:15.406Z,68.80
2018-06-11T19:13:46.412Z,69.00
2018-06-11T19:16:17.754Z,69.00
2018-06-11T19:18:48.576Z,69.50
2018-06-11T19:21:19.397Z,69.90
2018-06-11T19:23:50.418Z,70.30
2018-06-11T19:26:20.844Z,70.90
2018-06-11T19:28:51.899Z,71.20
2018-06-11T19:31:23.022Z,71.40
2018-06-11T19:33:53.300Z,71.40
2018-06-11T19:36:24.765Z,72.50
2018-06-11T19:38:55.465Z,72.80
2018-06-11T19:41:25.726Z,73.40
2018-06-11T19:43:56.454Z,73.50
2018-06-11T19:46:33.350Z,73.50
2018-06-11T19:49:03.890Z,73.60
2018-06-11T19:51:34.775Z,73.70
2018-06-11T19:54:05.563Z,72.90
2018-06-11T19:56:36.637Z,73.20
2018-06-11T19:59:08.084Z,72.80
2018-06-11T20:01:39.217Z,72.80
2018-06-11T20:04:10.540Z,73.00
2018-06-11T20:06:40.861Z,72.20
2018-06-11T20:09:11.230Z,71.90
2018-06-11T20:11:43.003Z,71.80
2018-06-11T20:14:14.477Z,71.80
2018-06-11T20:16:45.285Z,72.90
2018-06-11T20:19:17.257Z,73.60
2018-06-11T20:21:48.739Z,74.30
2018-06-11T20:24:20.665Z,74.10
2018-06-11T20:26:59.229Z,74.70
2018-06-11T20:29:30.427Z,75.10
2018-06-11T20:32:01.524Z,75.50
2018-06-11T20:34:31.955Z,75.60
2018-06-11T20:39:32.168Z,76.80
2018-06-11T20:42:02.490Z,76.80
2018-06-11T20:44:33.018Z,76.00
2018-06-11T20:47:08.687Z,77.10
2018-06-11T20:49:39.212Z,77.20
2018-06-11T20:52:09.516Z,77.00
2018-06-11T20:54:39.852Z,76.90
2018-06-11T20:57:10.160Z,77.60
2018-06-11T20:59:40.499Z,78.10
2018-06-11T21:04:40.732Z,79.30
2018-06-11T21:07:11.029Z,78.70
2018-06-11T21:09:41.348Z,79.00
2018-06-11T21:12:11.655Z,79.10
2018-06-11T21:14:41.916Z,79.10
2018-06-11T21:17:12.200Z,79.50
2018-06-11T21:19:42.545Z,79.90
2018-06-11T21:22:12.897Z,79.80
2018-06-11T21:24:43.601Z,80.10
2018-06-11T21:27:13.947Z,80.20
2018-06-11T21:29:44.352Z,80.30
2018-06-11T21:32:14.689Z,80.60
2018-06-11T21:34:45.021Z,80.80
2018-06-11T21:37:15.345Z,80.70
2018-06-11T21:39:45.648Z,80.60
2018-06-11T21:42:15.928Z,80.80
2018-06-11T21:44:46.232Z,81.00
2018-06-11T21:47:16.751Z,81.30
2018-06-11T21:49:47.084Z,81.40
2018-06-11T21:52:17.407Z,81.20
2018-06-11T21:54:47.710Z,82.30
2018-06-11T21:57:17.959Z,81.30
2018-06-11T21:59:48.367Z,81.30
2018-06-11T22:02:18.701Z,81.20
2018-06-11T22:04:49.021Z,81.30
2018-06-11T22:07:19.344Z,81.60
2018-06-11T22:09:49.661Z,82.00
2018-06-11T22:12:19.956Z,81.70
2018-06-11T22:14:50.410Z,82.00
2018-06-11T22:17:21.034Z,82.50
2018-06-11T22:19:51.350Z,82.60
2018-06-11T22:22:21.649Z,82.40
2018-06-11T22:24:52.236Z,82.50
2018-06-11T22:29:52.512Z,83.30
2018-06-11T22:32:22.774Z,83.00
2018-06-11T22:34:53.079Z,82.80
2018-06-11T22:37:23.360Z,82.90
2018-06-11T22:39:53.660Z,82.90
2018-06-11T22:42:23.969Z,82.60
2018-06-11T22:44:54.404Z,83.00
2018-06-11T22:47:25.074Z,83.50
2018-06-11T22:49:55.396Z,83.50
2018-06-11T22:52:25.859Z,83.70
2018-06-11T22:54:56.215Z,83.50
2018-06-11T22:57:26.573Z,83.60
2018-06-11T22:59:56.907Z,83.90
2018-06-11T23:02:27.215Z,84.10
2018-06-11T23:04:57.511Z,84.10
2018-06-11T23:07:27.791Z,84.10
2018-06-11T23:09:58.115Z,84.20
2018-06-11T23:12:28.427Z,84.50
2018-06-11T23:14:58.717Z,84.40
2018-06-11T23:17:29.016Z,84.90
2018-06-11T23:19:59.336Z,85.10
2018-06-11T23:22:29.646Z,85.20
2018-06-11T23:24:59.867Z,85.10
2018-06-11T23:27:30.148Z,85.10
2018-06-11T23:30:00.454Z,85.50
2018-06-11T23:32:30.696Z,85.40
2018-06-11T23:35:01.085Z,85.50
2018-06-11T23:37:31.377Z,85.80
2018-06-11T23:40:01.633Z,86.00
2018-06-11T23:42:31.964Z,85.50
2018-06-11T23:45:02.260Z,85.60
2018-06-11T23:47:32.752Z,86.10
2018-06-11T23:50:03.112Z,86.40
2018-06-11T23:52:33.420Z,86.90
2018-06-11T23:55:03.814Z,87.30
2018-06-11T23:57:34.184Z,87.30
